sensor_id;sensor_type;location;lat;lon;timestamp;P1;durP1;ratioP1;P2;durP2;ratioP2
10863;SDS011;5485;37.558;126.950;2023-06-22T00:01:44;4.22;;;3.83;;
10863;SDS011;5485;37.558;126.950;2023-06-22T00:04:11;4.68;;;3.90;;
10863;SDS011;5485;37.558;126.950;2023-06-22T00:06:38;6.50;;;3.50;;
10863;SDS011;5485;37.558;126.950;2023-06-22T00:09:05;4.00;;;3.45;;
10863;SDS011;5485;37.558;126.950;2023-06-22T00:11:33;3.97;;;3.20;;
10863;SDS011;5485;37.558;126.950;2023-06-22T00:14:00;4.22;;;3.55;;
10863;SDS011;5485;37.558;126.950;2023-06-22T00:16:27;4.53;;;3.80;;
10863;SDS011;5485;37.558;126.950;2023-06-22T00:18:56;4.65;;;4.25;;
10863;SDS011;5485;37.558;126.950;2023-06-22T00:21:26;4.93;;;4.40;;
10863;SDS011;5485;37.558;126.950;2023-06-22T00:23:53;7.40;;;4.45;;
10863;SDS011;5485;37.558;126.950;2023-06-22T00:26:21;5.00;;;4.53;;
10863;SDS011;5485;37.558;126.950;2023-06-22T00:28:48;10.40;;;4.35;;
10863;SDS011;5485;37.558;126.950;2023-06-22T00:31:14;4.88;;;4.30;;
10863;SDS011;5485;37.558;126.950;2023-06-22T00:33:41;6.10;;;4.72;;
10863;SDS011;5485;37.558;126.950;2023-06-22T00:36:08;6.38;;;4.60;;
10863;SDS011;5485;37.558;126.950;2023-06-22T00:38:38;10.77;;;4.40;;
10863;SDS011;5485;37.558;126.950;2023-06-22T00:41:05;6.15;;;4.38;;
10863;SDS011;5485;37.558;126.950;2023-06-22T00:43:32;9.38;;;4.32;;
10863;SDS011;5485;37.558;126.950;2023-06-22T00:45:59;5.00;;;4.47;;
10863;SDS011;5485;37.558;126.950;2023-06-22T00:48:29;6.95;;;4.68;;
10863;SDS011;5485;37.558;126.950;2023-06-22T00:50:58;5.38;;;4.90;;
10863;SDS011;5485;37.558;126.950;2023-06-22T00:53:25;5.30;;;4.22;;
10863;SDS011;5485;37.558;126.950;2023-06-22T00:55:52;5.50;;;5.00;;
10863;SDS011;5485;37.558;126.950;2023-06-22T00:58:19;6.25;;;5.00;;
10863;SDS011;5485;37.558;126.950;2023-06-22T01:00:47;5.47;;;4.88;;
10863;SDS011;5485;37.558;126.950;2023-06-22T01:03:14;6.70;;;5.47;;
10863;SDS011;5485;37.558;126.950;2023-06-22T01:05:42;5.78;;;5.15;;
10863;SDS011;5485;37.558;126.950;2023-06-22T01:11:10;6.20;;;5.32;;
10863;SDS011;5485;37.558;126.950;2023-06-22T01:17:00;9.23;;;5.40;;
10863;SDS011;5485;37.558;126.950;2023-06-22T01:19:51;6.15;;;5.55;;
10863;SDS011;5485;37.558;126.950;2023-06-22T01:22:26;6.22;;;5.70;;
10863;SDS011;5485;37.558;126.950;2023-06-22T01:30:54;9.75;;;6.28;;
10863;SDS011;5485;37.558;126.950;2023-06-22T01:33:34;6.28;;;5.60;;
10863;SDS011;5485;37.558;126.950;2023-06-22T01:36:03;6.45;;;5.80;;
10863;SDS011;5485;37.558;126.950;2023-06-22T01:38:30;6.60;;;5.95;;
10863;SDS011;5485;37.558;126.950;2023-06-22T01:41:04;6.93;;;6.03;;
10863;SDS011;5485;37.558;126.950;2023-06-22T01:43:31;7.38;;;5.82;;
10863;SDS011;5485;37.558;126.950;2023-06-22T01:46:00;6.75;;;5.85;;
10863;SDS011;5485;37.558;126.950;2023-06-22T01:48:28;7.57;;;6.28;;
10863;SDS011;5485;37.558;126.950;2023-06-22T01:50:56;8.93;;;7.60;;
10863;SDS011;5485;37.558;126.950;2023-06-22T01:53:23;8.25;;;6.57;;
10863;SDS011;5485;37.558;126.950;2023-06-22T01:55:53;10.60;;;7.60;;
10863;SDS011;5485;37.558;126.950;2023-06-22T01:58:22;8.77;;;7.65;;
10863;SDS011;5485;37.558;126.950;2023-06-22T02:00:58;10.00;;;8.45;;
10863;SDS011;5485;37.558;126.950;2023-06-22T02:03:30;13.50;;;8.27;;
10863;SDS011;5485;37.558;126.950;2023-06-22T02:06:03;10.25;;;8.63;;
10863;SDS011;5485;37.558;126.950;2023-06-22T02:11:33;8.48;;;7.68;;
10863;SDS011;5485;37.558;126.950;2023-06-22T02:14:02;8.82;;;7.93;;
10863;SDS011;5485;37.558;126.950;2023-06-22T02:16:31;10.30;;;8.63;;
10863;SDS011;5485;37.558;126.950;2023-06-22T02:18:58;9.45;;;8.65;;
10863;SDS011;5485;37.558;126.950;2023-06-22T02:21:31;10.73;;;9.25;;
10863;SDS011;5485;37.558;126.950;2023-06-22T02:23:58;9.70;;;8.85;;
10863;SDS011;5485;37.558;126.950;2023-06-22T02:26:25;10.25;;;9.25;;
10863;SDS011;5485;37.558;126.950;2023-06-22T02:28:53;10.35;;;9.27;;
10863;SDS011;5485;37.558;126.950;2023-06-22T02:31:20;10.27;;;8.98;;
10863;SDS011;5485;37.558;126.950;2023-06-22T02:33:47;10.48;;;9.48;;
10863;SDS011;5485;37.558;126.950;2023-06-22T02:36:14;15.10;;;9.35;;
10863;SDS011;5485;37.558;126.950;2023-06-22T02:38:41;10.05;;;9.07;;
10863;SDS011;5485;37.558;126.950;2023-06-22T02:41:14;9.07;;;8.38;;
10863;SDS011;5485;37.558;126.950;2023-06-22T02:43:44;9.07;;;8.32;;
10863;SDS011;5485;37.558;126.950;2023-06-22T02:46:12;12.85;;;11.55;;
10863;SDS011;5485;37.558;126.950;2023-06-22T02:48:40;13.20;;;11.85;;
10863;SDS011;5485;37.558;126.950;2023-06-22T02:51:07;11.55;;;10.35;;
10863;SDS011;5485;37.558;126.950;2023-06-22T02:53:34;11.88;;;10.85;;
10863;SDS011;5485;37.558;126.950;2023-06-22T02:56:03;13.02;;;11.73;;
10863;SDS011;5485;37.558;126.950;2023-06-22T02:58:31;13.60;;;12.50;;
10863;SDS011;5485;37.558;126.950;2023-06-22T03:01:04;14.38;;;13.00;;
10863;SDS011;5485;37.558;126.950;2023-06-22T03:03:31;13.98;;;12.75;;
10863;SDS011;5485;37.558;126.950;2023-06-22T03:05:58;14.13;;;12.75;;
10863;SDS011;5485;37.558;126.950;2023-06-22T03:08:26;14.82;;;12.52;;
10863;SDS011;5485;37.558;126.950;2023-06-22T03:10:54;11.77;;;10.68;;
10863;SDS011;5485;37.558;126.950;2023-06-22T03:13:21;11.65;;;10.55;;
10863;SDS011;5485;37.558;126.950;2023-06-22T03:15:49;12.32;;;11.23;;
10863;SDS011;5485;37.558;126.950;2023-06-22T03:18:15;15.10;;;11.95;;
10863;SDS011;5485;37.558;126.950;2023-06-22T03:20:42;15.05;;;11.80;;
10863;SDS011;5485;37.558;126.950;2023-06-22T03:23:10;12.98;;;11.68;;
10863;SDS011;5485;37.558;126.950;2023-06-22T03:25:42;11.98;;;10.88;;
10863;SDS011;5485;37.558;126.950;2023-06-22T03:28:12;10.30;;;9.38;;
10863;SDS011;5485;37.558;126.950;2023-06-22T03:30:39;11.23;;;10.13;;
10863;SDS011;5485;37.558;126.950;2023-06-22T03:33:06;10.75;;;9.65;;
10863;SDS011;5485;37.558;126.950;2023-06-22T03:35:33;14.65;;;13.20;;
10863;SDS011;5485;37.558;126.950;2023-06-22T03:38:00;14.13;;;12.70;;
10863;SDS011;5485;37.558;126.950;2023-06-22T03:40:27;14.15;;;12.13;;
10863;SDS011;5485;37.558;126.950;2023-06-22T03:42:55;13.15;;;11.77;;
10863;SDS011;5485;37.558;126.950;2023-06-22T03:45:22;13.10;;;10.85;;
10863;SDS011;5485;37.558;126.950;2023-06-22T03:47:48;12.45;;;11.15;;
10863;SDS011;5485;37.558;126.950;2023-06-22T03:50:16;12.23;;;11.10;;
10863;SDS011;5485;37.558;126.950;2023-06-22T03:52:46;11.15;;;10.07;;
10863;SDS011;5485;37.558;126.950;2023-06-22T03:55:12;11.55;;;8.70;;
10863;SDS011;5485;37.558;126.950;2023-06-22T03:57:41;8.77;;;8.07;;
10863;SDS011;5485;37.558;126.950;2023-06-22T04:00:09;8.88;;;8.07;;
10863;SDS011;5485;37.558;126.950;2023-06-22T04:02:36;10.00;;;7.32;;
10863;SDS011;5485;37.558;126.950;2023-06-22T04:05:03;8.10;;;7.50;;
10863;SDS011;5485;37.558;126.950;2023-06-22T04:07:30;11.40;;;10.38;;
10863;SDS011;5485;37.558;126.950;2023-06-22T04:10:03;11.52;;;10.52;;
10863;SDS011;5485;37.558;126.950;2023-06-22T04:12:30;9.90;;;9.10;;
10863;SDS011;5485;37.558;126.950;2023-06-22T04:15:00;9.75;;;8.80;;
10863;SDS011;5485;37.558;126.950;2023-06-22T04:17:28;9.48;;;8.65;;
10863;SDS011;5485;37.558;126.950;2023-06-22T04:19:54;10.27;;;9.27;;
10863;SDS011;5485;37.558;126.950;2023-06-22T04:22:24;9.60;;;8.80;;
10863;SDS011;5485;37.558;126.950;2023-06-22T04:24:50;9.88;;;8.23;;
10863;SDS011;5485;37.558;126.950;2023-06-22T04:27:20;8.68;;;7.95;;
10863;SDS011;5485;37.558;126.950;2023-06-22T04:29:48;8.07;;;7.47;;
10863;SDS011;5485;37.558;126.950;2023-06-22T04:32:16;7.90;;;7.00;;
10863;SDS011;5485;37.558;126.950;2023-06-22T04:34:44;6.47;;;6.00;;
10863;SDS011;5485;37.558;126.950;2023-06-22T04:37:10;7.53;;;6.82;;
10863;SDS011;5485;37.558;126.950;2023-06-22T04:39:41;8.77;;;7.97;;
10863;SDS011;5485;37.558;126.950;2023-06-22T04:42:09;8.80;;;7.38;;
10863;SDS011;5485;37.558;126.950;2023-06-22T04:44:38;10.77;;;8.60;;
10863;SDS011;5485;37.558;126.950;2023-06-22T04:47:07;10.00;;;8.95;;
10863;SDS011;5485;37.558;126.950;2023-06-22T04:49:34;9.32;;;8.43;;
10863;SDS011;5485;37.558;126.950;2023-06-22T04:52:06;10.15;;;8.00;;
10863;SDS011;5485;37.558;126.950;2023-06-22T04:54:37;8.77;;;7.57;;
10863;SDS011;5485;37.558;126.950;2023-06-22T04:57:12;8.40;;;7.60;;
10863;SDS011;5485;37.558;126.950;2023-06-22T04:59:44;7.80;;;7.13;;
10863;SDS011;5485;37.558;126.950;2023-06-22T05:02:10;9.50;;;7.40;;
10863;SDS011;5485;37.558;126.950;2023-06-22T05:04:39;8.05;;;7.32;;
10863;SDS011;5485;37.558;126.950;2023-06-22T05:07:06;7.97;;;7.28;;
10863;SDS011;5485;37.558;126.950;2023-06-22T05:09:33;9.07;;;7.32;;
10863;SDS011;5485;37.558;126.950;2023-06-22T05:12:00;8.43;;;7.72;;
10863;SDS011;5485;37.558;126.950;2023-06-22T05:14:28;8.07;;;7.38;;
10863;SDS011;5485;37.558;126.950;2023-06-22T05:16:55;8.13;;;7.38;;
10863;SDS011;5485;37.558;126.950;2023-06-22T05:19:29;7.93;;;7.18;;
10863;SDS011;5485;37.558;126.950;2023-06-22T05:21:58;7.70;;;6.78;;
10863;SDS011;5485;37.558;126.950;2023-06-22T05:24:25;7.93;;;7.13;;
10863;SDS011;5485;37.558;126.950;2023-06-22T05:26:52;7.72;;;6.82;;
10863;SDS011;5485;37.558;126.950;2023-06-22T05:29:19;7.32;;;6.47;;
10863;SDS011;5485;37.558;126.950;2023-06-22T05:31:47;11.23;;;7.38;;
10863;SDS011;5485;37.558;126.950;2023-06-22T05:34:15;7.50;;;6.82;;
10863;SDS011;5485;37.558;126.950;2023-06-22T05:36:42;8.15;;;6.90;;
10863;SDS011;5485;37.558;126.950;2023-06-22T05:39:12;7.65;;;7.03;;
10863;SDS011;5485;37.558;126.950;2023-06-22T05:41:40;7.57;;;6.90;;
10863;SDS011;5485;37.558;126.950;2023-06-22T05:44:08;7.38;;;6.78;;
10863;SDS011;5485;37.558;126.950;2023-06-22T05:46:42;8.35;;;7.45;;
10863;SDS011;5485;37.558;126.950;2023-06-22T05:49:13;8.55;;;7.50;;
10863;SDS011;5485;37.558;126.950;2023-06-22T05:51:41;10.98;;;7.38;;
10863;SDS011;5485;37.558;126.950;2023-06-22T05:54:08;9.25;;;7.55;;
10863;SDS011;5485;37.558;126.950;2023-06-22T05:56:35;7.93;;;6.93;;
10863;SDS011;5485;37.558;126.950;2023-06-22T05:59:05;8.25;;;7.45;;
10863;SDS011;5485;37.558;126.950;2023-06-22T06:01:31;7.30;;;6.60;;
10863;SDS011;5485;37.558;126.950;2023-06-22T06:04:00;7.28;;;6.57;;
10863;SDS011;5485;37.558;126.950;2023-06-22T06:06:27;7.30;;;6.35;;
10863;SDS011;5485;37.558;126.950;2023-06-22T06:08:54;6.43;;;5.85;;
10863;SDS011;5485;37.558;126.950;2023-06-22T06:11:21;6.50;;;5.90;;
10863;SDS011;5485;37.558;126.950;2023-06-22T06:13:54;6.32;;;5.72;;
10863;SDS011;5485;37.558;126.950;2023-06-22T06:16:21;7.43;;;5.82;;
10863;SDS011;5485;37.558;126.950;2023-06-22T06:18:48;6.10;;;5.60;;
10863;SDS011;5485;37.558;126.950;2023-06-22T06:21:16;5.78;;;5.32;;
10863;SDS011;5485;37.558;126.950;2023-06-22T06:23:43;7.97;;;6.30;;
10863;SDS011;5485;37.558;126.950;2023-06-22T06:26:10;6.30;;;5.80;;
10863;SDS011;5485;37.558;126.950;2023-06-22T06:28:37;6.25;;;5.43;;
10863;SDS011;5485;37.558;126.950;2023-06-22T06:31:03;6.63;;;6.03;;
10863;SDS011;5485;37.558;126.950;2023-06-22T06:33:34;6.20;;;5.72;;
10863;SDS011;5485;37.558;126.950;2023-06-22T06:36:01;7.05;;;5.82;;
10863;SDS011;5485;37.558;126.950;2023-06-22T06:38:34;6.88;;;5.57;;
10863;SDS011;5485;37.558;126.950;2023-06-22T06:41:01;6.43;;;5.82;;
10863;SDS011;5485;37.558;126.950;2023-06-22T06:43:28;6.03;;;5.63;;
10863;SDS011;5485;37.558;126.950;2023-06-22T06:45:55;6.53;;;5.90;;
10863;SDS011;5485;37.558;126.950;2023-06-22T06:48:22;6.70;;;5.43;;
10863;SDS011;5485;37.558;126.950;2023-06-22T06:50:54;6.43;;;6.03;;
10863;SDS011;5485;37.558;126.950;2023-06-22T06:53:21;7.40;;;6.65;;
10863;SDS011;5485;37.558;126.950;2023-06-22T06:55:48;7.00;;;6.38;;
10863;SDS011;5485;37.558;126.950;2023-06-22T06:58:15;8.68;;;6.60;;
10863;SDS011;5485;37.558;126.950;2023-06-22T07:00:42;7.10;;;6.40;;
10863;SDS011;5485;37.558;126.950;2023-06-22T07:03:09;7.07;;;6.55;;
10863;SDS011;5485;37.558;126.950;2023-06-22T07:05:36;7.50;;;6.80;;
10863;SDS011;5485;37.558;126.950;2023-06-22T07:08:03;6.10;;;5.68;;
10863;SDS011;5485;37.558;126.950;2023-06-22T07:10:30;6.32;;;5.53;;
10863;SDS011;5485;37.558;126.950;2023-06-22T07:12:57;6.55;;;5.43;;
10863;SDS011;5485;37.558;126.950;2023-06-22T07:15:24;6.68;;;5.43;;
10863;SDS011;5485;37.558;126.950;2023-06-22T07:17:53;6.03;;;5.53;;
10863;SDS011;5485;37.558;126.950;2023-06-22T07:20:20;6.25;;;5.28;;
10863;SDS011;5485;37.558;126.950;2023-06-22T07:22:47;5.78;;;5.28;;
10863;SDS011;5485;37.558;126.950;2023-06-22T07:25:17;6.13;;;5.63;;
10863;SDS011;5485;37.558;126.950;2023-06-22T07:27:46;7.57;;;5.78;;
10863;SDS011;5485;37.558;126.950;2023-06-22T07:30:28;5.82;;;5.40;;
10863;SDS011;5485;37.558;126.950;2023-06-22T07:32:56;6.55;;;5.95;;
10863;SDS011;5485;37.558;126.950;2023-06-22T07:35:30;7.05;;;6.38;;
10863;SDS011;5485;37.558;126.950;2023-06-22T07:37:57;7.47;;;6.78;;
10863;SDS011;5485;37.558;126.950;2023-06-22T07:40:24;6.82;;;6.32;;
10863;SDS011;5485;37.558;126.950;2023-06-22T07:42:51;7.93;;;6.53;;
10863;SDS011;5485;37.558;126.950;2023-06-22T07:45:19;7.45;;;6.90;;
10863;SDS011;5485;37.558;126.950;2023-06-22T07:47:46;7.65;;;7.03;;
10863;SDS011;5485;37.558;126.950;2023-06-22T07:50:12;7.07;;;6.47;;
10863;SDS011;5485;37.558;126.950;2023-06-22T07:52:40;7.40;;;6.80;;
10863;SDS011;5485;37.558;126.950;2023-06-22T07:55:07;8.27;;;6.80;;
10863;SDS011;5485;37.558;126.950;2023-06-22T07:57:34;7.25;;;6.68;;
10863;SDS011;5485;37.558;126.950;2023-06-22T08:00:02;8.27;;;7.60;;
10863;SDS011;5485;37.558;126.950;2023-06-22T08:02:44;8.45;;;7.53;;
10863;SDS011;5485;37.558;126.950;2023-06-22T08:05:12;9.30;;;8.40;;
10863;SDS011;5485;37.558;126.950;2023-06-22T08:07:40;8.48;;;7.68;;
10863;SDS011;5485;37.558;126.950;2023-06-22T08:10:11;9.30;;;8.52;;
10863;SDS011;5485;37.558;126.950;2023-06-22T08:12:39;9.98;;;9.07;;
10863;SDS011;5485;37.558;126.950;2023-06-22T08:15:09;12.68;;;10.68;;
10863;SDS011;5485;37.558;126.950;2023-06-22T08:17:46;12.30;;;11.15;;
10863;SDS011;5485;37.558;126.950;2023-06-22T08:20:12;11.73;;;10.73;;
10863;SDS011;5485;37.558;126.950;2023-06-22T08:22:40;13.45;;;12.20;;
10863;SDS011;5485;37.558;126.950;2023-06-22T08:25:08;15.13;;;13.55;;
10863;SDS011;5485;37.558;126.950;2023-06-22T08:27:35;14.07;;;12.65;;
10863;SDS011;5485;37.558;126.950;2023-06-22T08:30:02;15.02;;;13.60;;
10863;SDS011;5485;37.558;126.950;2023-06-22T08:32:30;14.15;;;12.80;;
10863;SDS011;5485;37.558;126.950;2023-06-22T08:34:58;14.65;;;13.27;;
10863;SDS011;5485;37.558;126.950;2023-06-22T08:37:25;14.60;;;13.35;;
10863;SDS011;5485;37.558;126.950;2023-06-22T08:39:59;15.60;;;13.27;;
10863;SDS011;5485;37.558;126.950;2023-06-22T08:42:26;15.70;;;14.15;;
10863;SDS011;5485;37.558;126.950;2023-06-22T08:44:53;14.40;;;13.00;;
10863;SDS011;5485;37.558;126.950;2023-06-22T08:47:21;15.25;;;13.77;;
10863;SDS011;5485;37.558;126.950;2023-06-22T08:49:48;15.60;;;13.38;;
10863;SDS011;5485;37.558;126.950;2023-06-22T08:52:15;15.63;;;13.60;;
10863;SDS011;5485;37.558;126.950;2023-06-22T08:54:43;17.33;;;13.90;;
10863;SDS011;5485;37.558;126.950;2023-06-22T08:57:10;14.02;;;12.65;;
10863;SDS011;5485;37.558;126.950;2023-06-22T08:59:37;13.68;;;12.32;;
10863;SDS011;5485;37.558;126.950;2023-06-22T09:02:05;14.75;;;13.23;;
10863;SDS011;5485;37.558;126.950;2023-06-22T09:04:32;13.88;;;12.50;;
10863;SDS011;5485;37.558;126.950;2023-06-22T09:07:00;15.45;;;13.85;;
10863;SDS011;5485;37.558;126.950;2023-06-22T09:09:27;14.98;;;13.68;;
10863;SDS011;5485;37.558;126.950;2023-06-22T09:11:54;14.48;;;13.18;;
10863;SDS011;5485;37.558;126.950;2023-06-22T09:14:21;14.82;;;13.48;;
10863;SDS011;5485;37.558;126.950;2023-06-22T09:16:48;15.15;;;13.75;;
10863;SDS011;5485;37.558;126.950;2023-06-22T09:19:15;16.08;;;14.45;;
10863;SDS011;5485;37.558;126.950;2023-06-22T09:21:42;15.52;;;14.02;;
10863;SDS011;5485;37.558;126.950;2023-06-22T09:24:09;15.90;;;14.30;;
10863;SDS011;5485;37.558;126.950;2023-06-22T09:26:36;15.10;;;13.75;;
10863;SDS011;5485;37.558;126.950;2023-06-22T09:29:04;15.68;;;14.07;;
10863;SDS011;5485;37.558;126.950;2023-06-22T09:31:31;13.48;;;12.27;;
10863;SDS011;5485;37.558;126.950;2023-06-22T09:33:58;13.65;;;12.45;;
10863;SDS011;5485;37.558;126.950;2023-06-22T09:36:25;14.38;;;13.10;;
10863;SDS011;5485;37.558;126.950;2023-06-22T09:38:52;13.60;;;12.18;;
10863;SDS011;5485;37.558;126.950;2023-06-22T09:41:24;13.85;;;12.65;;
10863;SDS011;5485;37.558;126.950;2023-06-22T09:43:51;14.65;;;13.45;;
10863;SDS011;5485;37.558;126.950;2023-06-22T09:46:18;15.43;;;13.65;;
10863;SDS011;5485;37.558;126.950;2023-06-22T09:48:47;14.02;;;12.73;;
10863;SDS011;5485;37.558;126.950;2023-06-22T09:51:14;14.30;;;13.10;;
10863;SDS011;5485;37.558;126.950;2023-06-22T09:53:41;13.80;;;12.32;;
10863;SDS011;5485;37.558;126.950;2023-06-22T09:56:09;15.20;;;13.63;;
10863;SDS011;5485;37.558;126.950;2023-06-22T09:58:43;15.52;;;14.18;;
10863;SDS011;5485;37.558;126.950;2023-06-22T10:01:12;14.82;;;13.52;;
10863;SDS011;5485;37.558;126.950;2023-06-22T10:03:42;14.82;;;13.38;;
10863;SDS011;5485;37.558;126.950;2023-06-22T10:06:09;15.32;;;13.82;;
10863;SDS011;5485;37.558;126.950;2023-06-22T10:08:36;16.55;;;14.95;;
10863;SDS011;5485;37.558;126.950;2023-06-22T10:11:04;14.70;;;13.25;;
10863;SDS011;5485;37.558;126.950;2023-06-22T10:13:31;15.43;;;14.10;;
10863;SDS011;5485;37.558;126.950;2023-06-22T10:15:58;16.83;;;15.23;;
10863;SDS011;5485;37.558;126.950;2023-06-22T10:18:32;17.27;;;15.55;;
10863;SDS011;5485;37.558;126.950;2023-06-22T10:20:59;16.60;;;14.82;;
10863;SDS011;5485;37.558;126.950;2023-06-22T10:23:26;17.65;;;15.82;;
10863;SDS011;5485;37.558;126.950;2023-06-22T10:25:53;17.00;;;15.40;;
10863;SDS011;5485;37.558;126.950;2023-06-22T10:28:22;17.25;;;15.50;;
10863;SDS011;5485;37.558;126.950;2023-06-22T10:30:49;16.10;;;14.80;;
10863;SDS011;5485;37.558;126.950;2023-06-22T10:33:17;16.02;;;14.38;;
10863;SDS011;5485;37.558;126.950;2023-06-22T10:35:44;17.38;;;15.70;;
10863;SDS011;5485;37.558;126.950;2023-06-22T10:38:11;18.35;;;16.65;;
10863;SDS011;5485;37.558;126.950;2023-06-22T10:40:38;18.13;;;16.27;;
10863;SDS011;5485;37.558;126.950;2023-06-22T10:43:05;39.88;;;22.70;;
10863;SDS011;5485;37.558;126.950;2023-06-22T10:45:31;19.70;;;17.92;;
10863;SDS011;5485;37.558;126.950;2023-06-22T10:47:58;19.05;;;17.27;;
10863;SDS011;5485;37.558;126.950;2023-06-22T10:50:25;30.20;;;21.55;;
10863;SDS011;5485;37.558;126.950;2023-06-22T10:52:53;21.23;;;18.90;;
10863;SDS011;5485;37.558;126.950;2023-06-22T10:55:20;21.08;;;18.98;;
10863;SDS011;5485;37.558;126.950;2023-06-22T10:57:47;21.77;;;19.77;;
10863;SDS011;5485;37.558;126.950;2023-06-22T11:00:15;22.40;;;20.17;;
10863;SDS011;5485;37.558;126.950;2023-06-22T11:02:42;22.45;;;20.35;;
10863;SDS011;5485;37.558;126.950;2023-06-22T11:05:09;26.38;;;21.67;;
10863;SDS011;5485;37.558;126.950;2023-06-22T11:07:37;23.70;;;21.27;;
10863;SDS011;5485;37.558;126.950;2023-06-22T11:10:07;23.08;;;20.58;;
10863;SDS011;5485;37.558;126.950;2023-06-22T11:12:40;24.55;;;22.05;;
10863;SDS011;5485;37.558;126.950;2023-06-22T11:15:10;23.95;;;21.45;;
10863;SDS011;5485;37.558;126.950;2023-06-22T11:17:40;25.33;;;22.85;;
10863;SDS011;5485;37.558;126.950;2023-06-22T11:20:07;25.00;;;22.33;;
10863;SDS011;5485;37.558;126.950;2023-06-22T11:22:40;26.98;;;24.10;;
10863;SDS011;5485;37.558;126.950;2023-06-22T11:25:07;28.00;;;25.02;;
10863;SDS011;5485;37.558;126.950;2023-06-22T11:27:36;29.27;;;25.98;;
10863;SDS011;5485;37.558;126.950;2023-06-22T11:30:03;28.02;;;25.33;;
10863;SDS011;5485;37.558;126.950;2023-06-22T11:32:30;28.50;;;23.98;;
10863;SDS011;5485;37.558;126.950;2023-06-22T11:34:57;29.02;;;24.30;;
10863;SDS011;5485;37.558;126.950;2023-06-22T11:37:24;27.55;;;24.80;;
10863;SDS011;5485;37.558;126.950;2023-06-22T11:39:54;28.33;;;25.13;;
10863;SDS011;5485;37.558;126.950;2023-06-22T11:42:21;28.10;;;25.33;;
10863;SDS011;5485;37.558;126.950;2023-06-22T11:44:49;31.27;;;27.42;;
10863;SDS011;5485;37.558;126.950;2023-06-22T11:47:16;28.27;;;25.38;;
10863;SDS011;5485;37.558;126.950;2023-06-22T11:49:42;27.40;;;24.80;;
10863;SDS011;5485;37.558;126.950;2023-06-22T11:52:09;28.67;;;25.88;;
10863;SDS011;5485;37.558;126.950;2023-06-22T11:54:40;29.30;;;26.15;;
10863;SDS011;5485;37.558;126.950;2023-06-22T11:57:07;27.67;;;25.05;;
10863;SDS011;5485;37.558;126.950;2023-06-22T11:59:35;30.23;;;26.92;;
10863;SDS011;5485;37.558;126.950;2023-06-22T12:02:05;29.83;;;26.67;;
10863;SDS011;5485;37.558;126.950;2023-06-22T12:04:34;29.52;;;26.42;;
10863;SDS011;5485;37.558;126.950;2023-06-22T12:07:01;28.00;;;25.13;;
10863;SDS011;5485;37.558;126.950;2023-06-22T12:09:29;33.85;;;29.35;;
10863;SDS011;5485;37.558;126.950;2023-06-22T12:11:58;30.13;;;26.88;;
10863;SDS011;5485;37.558;126.950;2023-06-22T12:14:25;29.05;;;26.05;;
10863;SDS011;5485;37.558;126.950;2023-06-22T12:16:52;29.00;;;25.90;;
10863;SDS011;5485;37.558;126.950;2023-06-22T12:19:18;32.33;;;29.10;;
10863;SDS011;5485;37.558;126.950;2023-06-22T12:21:45;31.35;;;28.02;;
10863;SDS011;5485;37.558;126.950;2023-06-22T12:24:12;31.13;;;27.85;;
10863;SDS011;5485;37.558;126.950;2023-06-22T12:26:39;33.92;;;29.10;;
10863;SDS011;5485;37.558;126.950;2023-06-22T12:29:07;32.10;;;28.63;;
10863;SDS011;5485;37.558;126.950;2023-06-22T12:31:33;38.53;;;30.80;;
10863;SDS011;5485;37.558;126.950;2023-06-22T12:34:02;35.53;;;31.63;;
10863;SDS011;5485;37.558;126.950;2023-06-22T12:36:29;33.67;;;30.20;;
10863;SDS011;5485;37.558;126.950;2023-06-22T12:38:56;35.95;;;31.98;;
10863;SDS011;5485;37.558;126.950;2023-06-22T12:41:23;40.17;;;35.08;;
10863;SDS011;5485;37.558;126.950;2023-06-22T12:43:50;35.22;;;31.50;;
10863;SDS011;5485;37.558;126.950;2023-06-22T12:46:17;36.17;;;32.30;;
10863;SDS011;5485;37.558;126.950;2023-06-22T12:48:44;37.25;;;33.28;;
10863;SDS011;5485;37.558;126.950;2023-06-22T12:51:11;37.13;;;33.10;;
10863;SDS011;5485;37.558;126.950;2023-06-22T12:53:37;36.03;;;32.10;;
10863;SDS011;5485;37.558;126.950;2023-06-22T12:56:04;36.78;;;32.83;;
10863;SDS011;5485;37.558;126.950;2023-06-22T12:58:34;37.05;;;32.65;;
10863;SDS011;5485;37.558;126.950;2023-06-22T13:01:01;37.72;;;33.78;;
10863;SDS011;5485;37.558;126.950;2023-06-22T13:03:28;38.00;;;34.00;;
10863;SDS011;5485;37.558;126.950;2023-06-22T13:05:55;37.58;;;33.50;;
10863;SDS011;5485;37.558;126.950;2023-06-22T13:08:22;37.38;;;33.53;;
10863;SDS011;5485;37.558;126.950;2023-06-22T13:10:49;37.03;;;33.20;;
10863;SDS011;5485;37.558;126.950;2023-06-22T13:13:17;40.75;;;34.40;;
10863;SDS011;5485;37.558;126.950;2023-06-22T13:15:44;37.47;;;33.60;;
10863;SDS011;5485;37.558;126.950;2023-06-22T13:18:11;40.38;;;34.95;;
10863;SDS011;5485;37.558;126.950;2023-06-22T13:20:38;39.55;;;35.25;;
10863;SDS011;5485;37.558;126.950;2023-06-22T13:23:04;36.58;;;32.88;;
10863;SDS011;5485;37.558;126.950;2023-06-22T13:25:31;37.75;;;33.72;;
10863;SDS011;5485;37.558;126.950;2023-06-22T13:27:58;39.33;;;34.15;;
10863;SDS011;5485;37.558;126.950;2023-06-22T13:30:25;38.95;;;33.95;;
10863;SDS011;5485;37.558;126.950;2023-06-22T13:32:52;38.28;;;34.00;;
10863;SDS011;5485;37.558;126.950;2023-06-22T13:35:19;37.58;;;33.55;;
10863;SDS011;5485;37.558;126.950;2023-06-22T13:37:46;40.65;;;35.33;;
10863;SDS011;5485;37.558;126.950;2023-06-22T13:40:12;39.50;;;35.25;;
10863;SDS011;5485;37.558;126.950;2023-06-22T13:42:40;42.33;;;35.35;;
10863;SDS011;5485;37.558;126.950;2023-06-22T13:45:10;40.13;;;35.67;;
10863;SDS011;5485;37.558;126.950;2023-06-22T13:47:37;40.40;;;35.60;;
10863;SDS011;5485;37.558;126.950;2023-06-22T13:50:07;41.90;;;37.45;;
10863;SDS011;5485;37.558;126.950;2023-06-22T13:52:34;40.88;;;36.63;;
10863;SDS011;5485;37.558;126.950;2023-06-22T13:55:02;43.20;;;38.28;;
10863;SDS011;5485;37.558;126.950;2023-06-22T13:57:32;45.33;;;37.83;;
10863;SDS011;5485;37.558;126.950;2023-06-22T13:59:59;42.58;;;38.13;;
10863;SDS011;5485;37.558;126.950;2023-06-22T14:02:26;41.03;;;36.80;;
10863;SDS011;5485;37.558;126.950;2023-06-22T14:04:53;42.33;;;37.92;;
10863;SDS011;5485;37.558;126.950;2023-06-22T14:07:20;42.35;;;37.70;;
10863;SDS011;5485;37.558;126.950;2023-06-22T14:09:47;46.17;;;38.53;;
10863;SDS011;5485;37.558;126.950;2023-06-22T14:12:15;40.13;;;36.13;;
10863;SDS011;5485;37.558;126.950;2023-06-22T14:14:43;45.72;;;41.03;;
10863;SDS011;5485;37.558;126.950;2023-06-22T14:17:12;48.05;;;42.75;;
10863;SDS011;5485;37.558;126.950;2023-06-22T14:19:38;41.22;;;36.85;;
10863;SDS011;5485;37.558;126.950;2023-06-22T14:22:05;44.33;;;39.70;;
10863;SDS011;5485;37.558;126.950;2023-06-22T14:24:32;46.00;;;41.03;;
10863;SDS011;5485;37.558;126.950;2023-06-22T14:27:02;48.67;;;43.30;;
10863;SDS011;5485;37.558;126.950;2023-06-22T14:29:33;46.85;;;41.65;;
10863;SDS011;5485;37.558;126.950;2023-06-22T14:32:00;52.25;;;44.95;;
10863;SDS011;5485;37.558;126.950;2023-06-22T14:34:27;44.22;;;39.40;;
10863;SDS011;5485;37.558;126.950;2023-06-22T14:36:54;50.05;;;44.50;;
10863;SDS011;5485;37.558;126.950;2023-06-22T14:39:21;49.72;;;42.38;;
10863;SDS011;5485;37.558;126.950;2023-06-22T14:41:48;50.58;;;45.03;;